sensor_id;sensor_type;location;lat;lon;timestamp;P1;durP1;ratioP1;P2;durP2;ratioP2
32760;SDS011;19126;47.472;7.850;2022-07-23T00:00:22;20.60;;;11.82;;
32760;SDS011;19126;47.472;7.850;2022-07-23T00:02:49;16.35;;;12.32;;
32760;SDS011;19126;47.472;7.850;2022-07-23T00:05:16;17.38;;;11.95;;
32760;SDS011;19126;47.472;7.850;2022-07-23T00:07:44;19.17;;;12.82;;
32760;SDS011;19126;47.472;7.850;2022-07-23T00:10:11;24.67;;;14.05;;
32760;SDS011;19126;47.472;7.850;2022-07-23T00:12:40;19.52;;;14.13;;
32760;SDS011;19126;47.472;7.850;2022-07-23T00:15:08;19.60;;;13.43;;
32760;SDS011;19126;47.472;7.850;2022-07-23T00:17:36;21.25;;;13.40;;
32760;SDS011;19126;47.472;7.850;2022-07-23T00:20:04;18.25;;;13.13;;
32760;SDS011;19126;47.472;7.850;2022-07-23T00:22:32;14.60;;;12.00;;
32760;SDS011;19126;47.472;7.850;2022-07-23T00:25:00;15.40;;;13.00;;
32760;SDS011;19126;47.472;7.850;2022-07-23T00:27:27;16.35;;;12.35;;
32760;SDS011;19126;47.472;7.850;2022-07-23T00:29:55;16.60;;;12.85;;
32760;SDS011;19126;47.472;7.850;2022-07-23T00:32:23;15.73;;;12.95;;
32760;SDS011;19126;47.472;7.850;2022-07-23T00:34:50;19.23;;;12.95;;
32760;SDS011;19126;47.472;7.850;2022-07-23T00:37:17;17.45;;;12.88;;
32760;SDS011;19126;47.472;7.850;2022-07-23T00:39:44;17.30;;;14.35;;
32760;SDS011;19126;47.472;7.850;2022-07-23T00:42:11;19.63;;;12.73;;
32760;SDS011;19126;47.472;7.850;2022-07-23T00:44:38;14.95;;;12.88;;
32760;SDS011;19126;47.472;7.850;2022-07-23T00:47:07;16.73;;;11.77;;
32760;SDS011;19126;47.472;7.850;2022-07-23T00:49:34;17.13;;;13.18;;
32760;SDS011;19126;47.472;7.850;2022-07-23T00:52:02;16.35;;;13.40;;
32760;SDS011;19126;47.472;7.850;2022-07-23T00:54:29;19.15;;;13.30;;
32760;SDS011;19126;47.472;7.850;2022-07-23T00:56:56;19.85;;;13.40;;
32760;SDS011;19126;47.472;7.850;2022-07-23T00:59:24;18.38;;;13.35;;
32760;SDS011;19126;47.472;7.850;2022-07-23T01:01:51;19.27;;;12.45;;
32760;SDS011;19126;47.472;7.850;2022-07-23T01:04:19;16.92;;;11.88;;
32760;SDS011;19126;47.472;7.850;2022-07-23T01:06:47;16.05;;;12.40;;
32760;SDS011;19126;47.472;7.850;2022-07-23T01:09:14;16.75;;;12.80;;
32760;SDS011;19126;47.472;7.850;2022-07-23T01:11:41;20.33;;;13.88;;
32760;SDS011;19126;47.472;7.850;2022-07-23T01:14:10;16.25;;;12.20;;
32760;SDS011;19126;47.472;7.850;2022-07-23T01:16:39;18.23;;;12.98;;
32760;SDS011;19126;47.472;7.850;2022-07-23T01:19:07;19.88;;;12.77;;
32760;SDS011;19126;47.472;7.850;2022-07-23T01:21:37;19.15;;;14.13;;
32760;SDS011;19126;47.472;7.850;2022-07-23T01:24:08;25.13;;;13.05;;
32760;SDS011;19126;47.472;7.850;2022-07-23T01:26:36;20.48;;;12.65;;
32760;SDS011;19126;47.472;7.850;2022-07-23T01:29:04;20.17;;;14.00;;
32760;SDS011;19126;47.472;7.850;2022-07-23T01:31:32;17.73;;;13.43;;
32760;SDS011;19126;47.472;7.850;2022-07-23T01:33:59;18.40;;;13.95;;
32760;SDS011;19126;47.472;7.850;2022-07-23T01:36:26;24.42;;;13.70;;
32760;SDS011;19126;47.472;7.850;2022-07-23T01:38:53;21.63;;;14.10;;
32760;SDS011;19126;47.472;7.850;2022-07-23T01:41:22;18.38;;;13.93;;
32760;SDS011;19126;47.472;7.850;2022-07-23T01:43:49;23.65;;;14.07;;
32760;SDS011;19126;47.472;7.850;2022-07-23T01:46:16;22.92;;;13.65;;
32760;SDS011;19126;47.472;7.850;2022-07-23T01:48:44;21.00;;;13.23;;
32760;SDS011;19126;47.472;7.850;2022-07-23T01:51:11;18.77;;;11.98;;
32760;SDS011;19126;47.472;7.850;2022-07-23T01:53:38;20.50;;;11.82;;
32760;SDS011;19126;47.472;7.850;2022-07-23T01:56:05;17.73;;;13.63;;
32760;SDS011;19126;47.472;7.850;2022-07-23T01:58:34;30.80;;;12.07;;
32760;SDS011;19126;47.472;7.850;2022-07-23T02:01:01;17.42;;;12.07;;
32760;SDS011;19126;47.472;7.850;2022-07-23T02:03:29;18.50;;;13.30;;
32760;SDS011;19126;47.472;7.850;2022-07-23T02:05:56;16.90;;;12.75;;
32760;SDS011;19126;47.472;7.850;2022-07-23T02:08:23;16.42;;;11.25;;
32760;SDS011;19126;47.472;7.850;2022-07-23T02:10:50;18.42;;;11.90;;
32760;SDS011;19126;47.472;7.850;2022-07-23T02:13:18;17.40;;;13.88;;
32760;SDS011;19126;47.472;7.850;2022-07-23T02:15:47;23.75;;;12.70;;
32760;SDS011;19126;47.472;7.850;2022-07-23T02:18:14;15.30;;;12.18;;
32760;SDS011;19126;47.472;7.850;2022-07-23T02:20:41;19.10;;;12.43;;
32760;SDS011;19126;47.472;7.850;2022-07-23T02:23:09;22.00;;;12.80;;
32760;SDS011;19126;47.472;7.850;2022-07-23T02:25:36;19.55;;;11.45;;
32760;SDS011;19126;47.472;7.850;2022-07-23T02:28:04;25.05;;;13.18;;
32760;SDS011;19126;47.472;7.850;2022-07-23T02:30:31;17.33;;;12.88;;
32760;SDS011;19126;47.472;7.850;2022-07-23T02:33:00;18.13;;;12.45;;
32760;SDS011;19126;47.472;7.850;2022-07-23T02:35:27;17.63;;;13.48;;
32760;SDS011;19126;47.472;7.850;2022-07-23T02:37:54;20.30;;;13.45;;
32760;SDS011;19126;47.472;7.850;2022-07-23T02:40:21;25.00;;;13.77;;
32760;SDS011;19126;47.472;7.850;2022-07-23T02:42:48;18.92;;;12.75;;
32760;SDS011;19126;47.472;7.850;2022-07-23T02:45:15;16.73;;;12.10;;
32760;SDS011;19126;47.472;7.850;2022-07-23T02:47:43;18.10;;;11.73;;
32760;SDS011;19126;47.472;7.850;2022-07-23T02:50:11;18.50;;;12.23;;
32760;SDS011;19126;47.472;7.850;2022-07-23T02:52:39;19.48;;;12.13;;
32760;SDS011;19126;47.472;7.850;2022-07-23T02:55:06;17.75;;;12.63;;
32760;SDS011;19126;47.472;7.850;2022-07-23T02:57:36;18.65;;;11.32;;
32760;SDS011;19126;47.472;7.850;2022-07-23T03:00:04;17.77;;;11.95;;
32760;SDS011;19126;47.472;7.850;2022-07-23T03:02:33;14.77;;;11.48;;
32760;SDS011;19126;47.472;7.850;2022-07-23T03:05:00;15.45;;;11.57;;
32760;SDS011;19126;47.472;7.850;2022-07-23T03:07:29;16.92;;;10.57;;
32760;SDS011;19126;47.472;7.850;2022-07-23T03:09:56;18.60;;;11.95;;
32760;SDS011;19126;47.472;7.850;2022-07-23T03:12:23;17.27;;;11.77;;
32760;SDS011;19126;47.472;7.850;2022-07-23T03:14:51;19.80;;;10.90;;
32760;SDS011;19126;47.472;7.850;2022-07-23T03:17:18;21.98;;;12.27;;
32760;SDS011;19126;47.472;7.850;2022-07-23T03:19:45;20.60;;;12.95;;
32760;SDS011;19126;47.472;7.850;2022-07-23T03:22:12;16.55;;;11.90;;
32760;SDS011;19126;47.472;7.850;2022-07-23T03:24:41;17.70;;;11.80;;
32760;SDS011;19126;47.472;7.850;2022-07-23T03:27:20;17.13;;;10.55;;
32760;SDS011;19126;47.472;7.850;2022-07-23T03:29:47;16.40;;;11.43;;
32760;SDS011;19126;47.472;7.850;2022-07-23T03:32:15;20.63;;;11.00;;
32760;SDS011;19126;47.472;7.850;2022-07-23T03:34:42;16.73;;;10.60;;
32760;SDS011;19126;47.472;7.850;2022-07-23T03:37:09;17.70;;;10.93;;
32760;SDS011;19126;47.472;7.850;2022-07-23T03:39:36;14.70;;;10.80;;
32760;SDS011;19126;47.472;7.850;2022-07-23T03:42:05;27.88;;;10.90;;
32760;SDS011;19126;47.472;7.850;2022-07-23T03:44:33;13.68;;;10.70;;
32760;SDS011;19126;47.472;7.850;2022-07-23T03:47:01;14.30;;;10.45;;
32760;SDS011;19126;47.472;7.850;2022-07-23T03:49:29;16.10;;;10.38;;
32760;SDS011;19126;47.472;7.850;2022-07-23T03:51:56;14.13;;;10.07;;
32760;SDS011;19126;47.472;7.850;2022-07-23T03:54:23;22.85;;;11.75;;
32760;SDS011;19126;47.472;7.850;2022-07-23T03:56:50;13.23;;;9.77;;
32760;SDS011;19126;47.472;7.850;2022-07-23T03:59:19;14.30;;;10.43;;
32760;SDS011;19126;47.472;7.850;2022-07-23T04:01:46;24.60;;;11.68;;
32760;SDS011;19126;47.472;7.850;2022-07-23T04:04:13;26.17;;;13.13;;
32760;SDS011;19126;47.472;7.850;2022-07-23T04:06:40;26.77;;;12.43;;
32760;SDS011;19126;47.472;7.850;2022-07-23T04:09:08;20.77;;;12.70;;
32760;SDS011;19126;47.472;7.850;2022-07-23T04:11:35;18.73;;;12.45;;
32760;SDS011;19126;47.472;7.850;2022-07-23T04:14:02;16.88;;;12.18;;
32760;SDS011;19126;47.472;7.850;2022-07-23T04:16:30;26.38;;;13.45;;
32760;SDS011;19126;47.472;7.850;2022-07-23T04:18:58;22.08;;;12.30;;
32760;SDS011;19126;47.472;7.850;2022-07-23T04:21:25;17.85;;;12.88;;
32760;SDS011;19126;47.472;7.850;2022-07-23T04:23:52;22.63;;;13.60;;
32760;SDS011;19126;47.472;7.850;2022-07-23T04:26:19;21.95;;;13.63;;
32760;SDS011;19126;47.472;7.850;2022-07-23T04:28:47;20.77;;;14.18;;
32760;SDS011;19126;47.472;7.850;2022-07-23T04:31:14;22.42;;;14.45;;
32760;SDS011;19126;47.472;7.850;2022-07-23T04:33:42;22.05;;;14.57;;
32760;SDS011;19126;47.472;7.850;2022-07-23T04:36:09;22.55;;;13.55;;
32760;SDS011;19126;47.472;7.850;2022-07-23T04:38:37;18.95;;;13.70;;
32760;SDS011;19126;47.472;7.850;2022-07-23T04:41:04;21.48;;;13.80;;
32760;SDS011;19126;47.472;7.850;2022-07-23T04:43:31;17.35;;;13.00;;
32760;SDS011;19126;47.472;7.850;2022-07-23T04:45:58;22.60;;;13.38;;
32760;SDS011;19126;47.472;7.850;2022-07-23T04:48:25;19.70;;;13.07;;
32760;SDS011;19126;47.472;7.850;2022-07-23T04:50:54;22.40;;;13.05;;
32760;SDS011;19126;47.472;7.850;2022-07-23T04:53:21;18.15;;;13.02;;
32760;SDS011;19126;47.472;7.850;2022-07-23T04:55:48;17.25;;;13.30;;
32760;SDS011;19126;47.472;7.850;2022-07-23T04:58:15;14.73;;;12.57;;
32760;SDS011;19126;47.472;7.850;2022-07-23T05:00:42;22.00;;;14.63;;
32760;SDS011;19126;47.472;7.850;2022-07-23T05:03:10;21.20;;;13.75;;
32760;SDS011;19126;47.472;7.850;2022-07-23T05:05:37;18.45;;;12.80;;
32760;SDS011;19126;47.472;7.850;2022-07-23T05:08:05;16.17;;;12.60;;
32760;SDS011;19126;47.472;7.850;2022-07-23T05:10:32;19.38;;;14.10;;
32760;SDS011;19126;47.472;7.850;2022-07-23T05:13:00;19.73;;;13.90;;
32760;SDS011;19126;47.472;7.850;2022-07-23T05:15:27;20.52;;;13.90;;
32760;SDS011;19126;47.472;7.850;2022-07-23T05:17:54;18.92;;;12.25;;
32760;SDS011;19126;47.472;7.850;2022-07-23T05:20:21;18.13;;;13.02;;
32760;SDS011;19126;47.472;7.850;2022-07-23T05:22:48;17.15;;;13.43;;
32760;SDS011;19126;47.472;7.850;2022-07-23T05:25:17;19.95;;;13.90;;
32760;SDS011;19126;47.472;7.850;2022-07-23T05:27:44;23.48;;;13.20;;
32760;SDS011;19126;47.472;7.850;2022-07-23T05:30:11;20.02;;;12.88;;
32760;SDS011;19126;47.472;7.850;2022-07-23T05:32:39;16.33;;;12.38;;
32760;SDS011;19126;47.472;7.850;2022-07-23T05:35:06;18.83;;;13.68;;
32760;SDS011;19126;47.472;7.850;2022-07-23T05:37:34;16.92;;;13.10;;
32760;SDS011;19126;47.472;7.850;2022-07-23T05:40:02;20.65;;;13.80;;
32760;SDS011;19126;47.472;7.850;2022-07-23T05:42:33;25.10;;;12.80;;
32760;SDS011;19126;47.472;7.850;2022-07-23T05:45:01;15.88;;;12.20;;
32760;SDS011;19126;47.472;7.850;2022-07-23T05:47:38;19.00;;;13.48;;
32760;SDS011;19126;47.472;7.850;2022-07-23T05:50:07;18.38;;;13.18;;
32760;SDS011;19126;47.472;7.850;2022-07-23T05:52:35;18.58;;;13.18;;
32760;SDS011;19126;47.472;7.850;2022-07-23T05:55:02;16.50;;;13.50;;
32760;SDS011;19126;47.472;7.850;2022-07-23T05:57:30;19.08;;;13.90;;
32760;SDS011;19126;47.472;7.850;2022-07-23T05:59:59;16.38;;;12.73;;
32760;SDS011;19126;47.472;7.850;2022-07-23T06:02:26;17.52;;;13.10;;
32760;SDS011;19126;47.472;7.850;2022-07-23T06:04:53;21.60;;;14.15;;
32760;SDS011;19126;47.472;7.850;2022-07-23T06:07:20;23.13;;;14.93;;
32760;SDS011;19126;47.472;7.850;2022-07-23T06:09:47;23.58;;;16.42;;
32760;SDS011;19126;47.472;7.850;2022-07-23T06:12:15;21.17;;;13.60;;
32760;SDS011;19126;47.472;7.850;2022-07-23T06:14:42;22.08;;;14.40;;
32760;SDS011;19126;47.472;7.850;2022-07-23T06:17:11;21.35;;;14.05;;
32760;SDS011;19126;47.472;7.850;2022-07-23T06:19:38;20.83;;;12.77;;
32760;SDS011;19126;47.472;7.850;2022-07-23T06:22:05;17.05;;;12.98;;
32760;SDS011;19126;47.472;7.850;2022-07-23T06:24:32;19.25;;;13.93;;
32760;SDS011;19126;47.472;7.850;2022-07-23T06:26:59;16.25;;;13.40;;
32760;SDS011;19126;47.472;7.850;2022-07-23T06:29:27;16.75;;;13.05;;
32760;SDS011;19126;47.472;7.850;2022-07-23T06:31:54;18.52;;;13.82;;
32760;SDS011;19126;47.472;7.850;2022-07-23T06:34:22;18.98;;;13.93;;
32760;SDS011;19126;47.472;7.850;2022-07-23T06:36:50;21.42;;;14.73;;
32760;SDS011;19126;47.472;7.850;2022-07-23T06:39:17;14.68;;;12.75;;
32760;SDS011;19126;47.472;7.850;2022-07-23T06:41:44;18.67;;;12.88;;
32760;SDS011;19126;47.472;7.850;2022-07-23T06:44:11;18.45;;;13.32;;
32760;SDS011;19126;47.472;7.850;2022-07-23T06:46:38;19.42;;;14.32;;
32760;SDS011;19126;47.472;7.850;2022-07-23T06:49:05;18.42;;;13.23;;
32760;SDS011;19126;47.472;7.850;2022-07-23T06:51:34;17.45;;;12.85;;
32760;SDS011;19126;47.472;7.850;2022-07-23T06:54:01;21.13;;;13.10;;
32760;SDS011;19126;47.472;7.850;2022-07-23T06:56:29;16.38;;;13.23;;
32760;SDS011;19126;47.472;7.850;2022-07-23T06:58:56;19.73;;;13.70;;
32760;SDS011;19126;47.472;7.850;2022-07-23T07:01:23;20.20;;;13.48;;
32760;SDS011;19126;47.472;7.850;2022-07-23T07:03:51;17.75;;;12.82;;
32760;SDS011;19126;47.472;7.850;2022-07-23T07:06:18;17.23;;;13.25;;
32760;SDS011;19126;47.472;7.850;2022-07-23T07:08:47;20.08;;;13.15;;
32760;SDS011;19126;47.472;7.850;2022-07-23T07:11:14;20.40;;;13.55;;
32760;SDS011;19126;47.472;7.850;2022-07-23T07:13:41;19.58;;;12.38;;
32760;SDS011;19126;47.472;7.850;2022-07-23T07:16:08;19.20;;;12.63;;
32760;SDS011;19126;47.472;7.850;2022-07-23T07:18:35;18.80;;;12.52;;
32760;SDS011;19126;47.472;7.850;2022-07-23T07:21:02;21.55;;;13.57;;
32760;SDS011;19126;47.472;7.850;2022-07-23T07:23:30;20.85;;;14.32;;
32760;SDS011;19126;47.472;7.850;2022-07-23T07:25:58;18.02;;;13.27;;
32760;SDS011;19126;47.472;7.850;2022-07-23T07:28:25;19.42;;;13.38;;
32760;SDS011;19126;47.472;7.850;2022-07-23T07:30:53;22.55;;;14.88;;
32760;SDS011;19126;47.472;7.850;2022-07-23T07:33:20;19.40;;;12.60;;
32760;SDS011;19126;47.472;7.850;2022-07-23T07:35:47;18.60;;;13.13;;
32760;SDS011;19126;47.472;7.850;2022-07-23T07:38:15;25.40;;;13.55;;
32760;SDS011;19126;47.472;7.850;2022-07-23T07:40:42;19.02;;;13.77;;
32760;SDS011;19126;47.472;7.850;2022-07-23T07:43:10;21.95;;;14.13;;
32760;SDS011;19126;47.472;7.850;2022-07-23T07:45:38;20.48;;;14.45;;
32760;SDS011;19126;47.472;7.850;2022-07-23T07:48:05;21.65;;;13.48;;
32760;SDS011;19126;47.472;7.850;2022-07-23T07:50:32;19.35;;;14.68;;
32760;SDS011;19126;47.472;7.850;2022-07-23T07:52:59;19.38;;;13.93;;
32760;SDS011;19126;47.472;7.850;2022-07-23T07:55:27;20.80;;;13.23;;
32760;SDS011;19126;47.472;7.850;2022-07-23T07:57:54;14.90;;;11.63;;
32760;SDS011;19126;47.472;7.850;2022-07-23T08:00:22;18.25;;;12.05;;
32760;SDS011;19126;47.472;7.850;2022-07-23T08:02:50;19.23;;;13.90;;
32760;SDS011;19126;47.472;7.850;2022-07-23T08:05:19;21.88;;;14.43;;
32760;SDS011;19126;47.472;7.850;2022-07-23T08:07:48;18.50;;;13.52;;
32760;SDS011;19126;47.472;7.850;2022-07-23T08:10:15;24.67;;;13.18;;
32760;SDS011;19126;47.472;7.850;2022-07-23T08:12:44;19.83;;;14.23;;
32760;SDS011;19126;47.472;7.850;2022-07-23T08:15:13;17.38;;;13.63;;
32760;SDS011;19126;47.472;7.850;2022-07-23T08:17:47;13.55;;;11.88;;
32760;SDS011;19126;47.472;7.850;2022-07-23T08:20:20;18.33;;;12.77;;
32760;SDS011;19126;47.472;7.850;2022-07-23T08:22:49;17.10;;;12.73;;
32760;SDS011;19126;47.472;7.850;2022-07-23T08:25:20;17.27;;;12.55;;
32760;SDS011;19126;47.472;7.850;2022-07-23T08:27:49;16.02;;;11.73;;
32760;SDS011;19126;47.472;7.850;2022-07-23T08:30:17;19.50;;;11.02;;
32760;SDS011;19126;47.472;7.850;2022-07-23T08:32:48;18.90;;;12.10;;
32760;SDS011;19126;47.472;7.850;2022-07-23T08:35:23;18.33;;;11.65;;
32760;SDS011;19126;47.472;7.850;2022-07-23T08:37:53;15.63;;;11.20;;
32760;SDS011;19126;47.472;7.850;2022-07-23T08:40:21;15.23;;;10.13;;
32760;SDS011;19126;47.472;7.850;2022-07-23T08:42:49;19.27;;;11.02;;
32760;SDS011;19126;47.472;7.850;2022-07-23T08:45:18;18.83;;;11.80;;
32760;SDS011;19126;47.472;7.850;2022-07-23T08:47:49;13.30;;;10.45;;
32760;SDS011;19126;47.472;7.850;2022-07-23T08:50:18;12.80;;;10.63;;
32760;SDS011;19126;47.472;7.850;2022-07-23T08:52:45;12.13;;;9.95;;
32760;SDS011;19126;47.472;7.850;2022-07-23T08:55:15;14.27;;;10.13;;
32760;SDS011;19126;47.472;7.850;2022-07-23T08:57:43;17.52;;;11.13;;
32760;SDS011;19126;47.472;7.850;2022-07-23T09:00:11;17.77;;;11.27;;
32760;SDS011;19126;47.472;7.850;2022-07-23T09:02:40;13.52;;;9.95;;
32760;SDS011;19126;47.472;7.850;2022-07-23T09:05:10;16.50;;;10.02;;
32760;SDS011;19126;47.472;7.850;2022-07-23T09:13:26;12.40;;;9.75;;
32760;SDS011;19126;47.472;7.850;2022-07-23T09:15:58;14.63;;;9.52;;
32760;SDS011;19126;47.472;7.850;2022-07-23T09:18:28;16.65;;;9.73;;
32760;SDS011;19126;47.472;7.850;2022-07-23T09:21:14;14.73;;;10.35;;
32760;SDS011;19126;47.472;7.850;2022-07-23T09:23:49;16.00;;;10.23;;
32760;SDS011;19126;47.472;7.850;2022-07-23T09:26:20;14.60;;;10.45;;
32760;SDS011;19126;47.472;7.850;2022-07-23T09:28:57;11.65;;;9.65;;
32760;SDS011;19126;47.472;7.850;2022-07-23T09:31:30;11.25;;;9.00;;
32760;SDS011;19126;47.472;7.850;2022-07-23T09:34:07;11.18;;;9.52;;
32760;SDS011;19126;47.472;7.850;2022-07-23T09:36:39;15.52;;;10.68;;
32760;SDS011;19126;47.472;7.850;2022-07-23T09:39:08;13.63;;;8.88;;
32760;SDS011;19126;47.472;7.850;2022-07-23T09:41:37;12.52;;;9.50;;
32760;SDS011;19126;47.472;7.850;2022-07-23T09:44:12;12.50;;;9.82;;
32760;SDS011;19126;47.472;7.850;2022-07-23T09:46:42;12.70;;;9.45;;
32760;SDS011;19126;47.472;7.850;2022-07-23T09:49:20;12.98;;;9.57;;
32760;SDS011;19126;47.472;7.850;2022-07-23T09:51:54;18.70;;;10.40;;
32760;SDS011;19126;47.472;7.850;2022-07-23T09:54:28;13.73;;;9.93;;
32760;SDS011;19126;47.472;7.850;2022-07-23T09:56:59;15.40;;;9.60;;
32760;SDS011;19126;47.472;7.850;2022-07-23T09:59:30;15.13;;;11.02;;
32760;SDS011;19126;47.472;7.850;2022-07-23T10:01:59;13.00;;;9.75;;
32760;SDS011;19126;47.472;7.850;2022-07-23T10:04:27;17.23;;;10.23;;
32760;SDS011;19126;47.472;7.850;2022-07-23T10:06:58;14.20;;;10.02;;
32760;SDS011;19126;47.472;7.850;2022-07-23T10:09:29;11.48;;;9.90;;
32760;SDS011;19126;47.472;7.850;2022-07-23T10:11:59;15.25;;;9.80;;
32760;SDS011;19126;47.472;7.850;2022-07-23T10:14:35;11.73;;;9.95;;
32760;SDS011;19126;47.472;7.850;2022-07-23T10:17:04;14.27;;;9.52;;
32760;SDS011;19126;47.472;7.850;2022-07-23T10:19:31;13.32;;;10.07;;
32760;SDS011;19126;47.472;7.850;2022-07-23T10:22:01;13.13;;;9.57;;
32760;SDS011;19126;47.472;7.850;2022-07-23T10:24:41;16.00;;;10.15;;
32760;SDS011;19126;47.472;7.850;2022-07-23T10:30:36;15.90;;;11.00;;
32760;SDS011;19126;47.472;7.850;2022-07-23T10:33:17;13.63;;;10.32;;
32760;SDS011;19126;47.472;7.850;2022-07-23T10:35:58;14.73;;;9.60;;
32760;SDS011;19126;47.472;7.850;2022-07-23T10:38:37;14.77;;;9.57;;
32760;SDS011;19126;47.472;7.850;2022-07-23T10:41:20;12.75;;;10.05;;
32760;SDS011;19126;47.472;7.850;2022-07-23T10:44:05;15.07;;;10.23;;
32760;SDS011;19126;47.472;7.850;2022-07-23T10:46:35;12.77;;;9.82;;
32760;SDS011;19126;47.472;7.850;2022-07-23T10:49:20;14.77;;;11.02;;
32760;SDS011;19126;47.472;7.850;2022-07-23T10:54:53;12.50;;;9.85;;
32760;SDS011;19126;47.472;7.850;2022-07-23T10:57:23;12.47;;;10.17;;
32760;SDS011;19126;47.472;7.850;2022-07-23T11:02:46;13.02;;;9.50;;
32760;SDS011;19126;47.472;7.850;2022-07-23T11:05:16;12.57;;;9.40;;
32760;SDS011;19126;47.472;7.850;2022-07-23T11:10:48;10.50;;;8.95;;
32760;SDS011;19126;47.472;7.850;2022-07-23T11:16:15;11.27;;;9.75;;
32760;SDS011;19126;47.472;7.850;2022-07-23T11:21:40;13.45;;;10.10;;
32760;SDS011;19126;47.472;7.850;2022-07-23T11:24:17;13.77;;;11.13;;
32760;SDS011;19126;47.472;7.850;2022-07-23T11:26:52;16.33;;;10.68;;
32760;SDS011;19126;47.472;7.850;2022-07-23T11:29:38;11.98;;;10.65;;
32760;SDS011;19126;47.472;7.850;2022-07-23T11:32:33;21.02;;;9.80;;
32760;SDS011;19126;47.472;7.850;2022-07-23T11:35:18;16.35;;;10.18;;
32760;SDS011;19126;47.472;7.850;2022-07-23T11:38:02;15.40;;;10.07;;
32760;SDS011;19126;47.472;7.850;2022-07-23T11:40:32;12.43;;;9.73;;
32760;SDS011;19126;47.472;7.850;2022-07-23T11:43:02;14.45;;;10.85;;
32760;SDS011;19126;47.472;7.850;2022-07-23T11:45:33;11.45;;;9.60;;
32760;SDS011;19126;47.472;7.850;2022-07-23T11:48:03;17.13;;;9.57;;
32760;SDS011;19126;47.472;7.850;2022-07-23T11:50:34;12.30;;;9.00;;
32760;SDS011;19126;47.472;7.850;2022-07-23T11:53:03;12.38;;;8.85;;
32760;SDS011;19126;47.472;7.850;2022-07-23T11:55:30;14.75;;;8.85;;
32760;SDS011;19126;47.472;7.850;2022-07-23T11:57:59;12.02;;;8.88;;
32760;SDS011;19126;47.472;7.850;2022-07-23T12:00:28;12.55;;;8.55;;
32760;SDS011;19126;47.472;7.850;2022-07-23T12:02:57;11.10;;;9.27;;
32760;SDS011;19126;47.472;7.850;2022-07-23T12:05:27;15.10;;;9.30;;
32760;SDS011;19126;47.472;7.850;2022-07-23T12:07:57;14.10;;;8.73;;
32760;SDS011;19126;47.472;7.850;2022-07-23T12:10:26;15.90;;;9.25;;
32760;SDS011;19126;47.472;7.850;2022-07-23T12:12:56;9.93;;;8.80;;
32760;SDS011;19126;47.472;7.850;2022-07-23T12:15:26;10.02;;;8.63;;
32760;SDS011;19126;47.472;7.850;2022-07-23T12:17:58;11.73;;;8.80;;
32760;SDS011;19126;47.472;7.850;2022-07-23T12:20:27;14.38;;;8.30;;
32760;SDS011;19126;47.472;7.850;2022-07-23T12:22:57;18.35;;;8.73;;
32760;SDS011;19126;47.472;7.850;2022-07-23T12:25:27;14.07;;;7.93;;
32760;SDS011;19126;47.472;7.850;2022-07-23T12:28:01;13.82;;;8.25;;
32760;SDS011;19126;47.472;7.850;2022-07-23T12:30:33;11.80;;;8.63;;
32760;SDS011;19126;47.472;7.850;2022-07-23T12:33:05;13.45;;;8.57;;
32760;SDS011;19126;47.472;7.850;2022-07-23T12:35:36;13.30;;;8.07;;
32760;SDS011;19126;47.472;7.850;2022-07-23T12:38:07;10.70;;;7.75;;
32760;SDS011;19126;47.472;7.850;2022-07-23T12:40:36;14.93;;;8.30;;
32760;SDS011;19126;47.472;7.850;2022-07-23T12:43:11;12.43;;;8.00;;
32760;SDS011;19126;47.472;7.850;2022-07-23T12:45:47;9.68;;;8.13;;
32760;SDS011;19126;47.472;7.850;2022-07-23T12:48:17;12.43;;;8.60;;
32760;SDS011;19126;47.472;7.850;2022-07-23T12:50:49;12.52;;;8.25;;
32760;SDS011;19126;47.472;7.850;2022-07-23T12:53:19;14.02;;;8.55;;
32760;SDS011;19126;47.472;7.850;2022-07-23T12:55:49;14.45;;;9.98;;
32760;SDS011;19126;47.472;7.850;2022-07-23T12:58:24;16.02;;;9.55;;
32760;SDS011;19126;47.472;7.850;2022-07-23T13:01:01;9.93;;;7.75;;
32760;SDS011;19126;47.472;7.850;2022-07-23T13:03:31;10.48;;;8.75;;
32760;SDS011;19126;47.472;7.850;2022-07-23T13:06:03;12.43;;;8.63;;
32760;SDS011;19126;47.472;7.850;2022-07-23T13:08:34;18.40;;;9.18;;
32760;SDS011;19126;47.472;7.850;2022-07-23T13:11:03;11.05;;;8.55;;
32760;SDS011;19126;47.472;7.850;2022-07-23T13:13:32;10.55;;;8.45;;
32760;SDS011;19126;47.472;7.850;2022-07-23T13:16:02;10.43;;;8.70;;
32760;SDS011;19126;47.472;7.850;2022-07-23T13:18:30;16.65;;;8.05;;
32760;SDS011;19126;47.472;7.850;2022-07-23T13:20:57;17.08;;;8.63;;
32760;SDS011;19126;47.472;7.850;2022-07-23T13:23:25;14.00;;;8.15;;
32760;SDS011;19126;47.472;7.850;2022-07-23T13:25:52;11.27;;;8.07;;
32760;SDS011;19126;47.472;7.850;2022-07-23T13:28:20;13.32;;;8.55;;
32760;SDS011;19126;47.472;7.850;2022-07-23T13:30:49;11.35;;;7.32;;
32760;SDS011;19126;47.472;7.850;2022-07-23T13:33:20;10.60;;;8.05;;
32760;SDS011;19126;47.472;7.850;2022-07-23T13:38:17;10.77;;;7.72;;
32760;SDS011;19126;47.472;7.850;2022-07-23T13:40:45;16.58;;;8.90;;
32760;SDS011;19126;47.472;7.850;2022-07-23T13:43:15;12.32;;;8.07;;
32760;SDS011;19126;47.472;7.850;2022-07-23T13:45:45;9.63;;;7.63;;
32760;SDS011;19126;47.472;7.850;2022-07-23T13:48:13;14.88;;;7.35;;
32760;SDS011;19126;47.472;7.850;2022-07-23T13:50:42;11.82;;;8.02;;
32760;SDS011;19126;47.472;7.850;2022-07-23T13:53:11;10.85;;;8.02;;
32760;SDS011;19126;47.472;7.850;2022-07-23T13:55:43;10.07;;;7.00;;
32760;SDS011;19126;47.472;7.850;2022-07-23T13:58:11;19.38;;;7.90;;
32760;SDS011;19126;47.472;7.850;2022-07-23T14:00:39;13.27;;;7.95;;
32760;SDS011;19126;47.472;7.850;2022-07-23T14:03:10;9.95;;;7.28;;
32760;SDS011;19126;47.472;7.850;2022-07-23T14:05:37;11.10;;;8.40;;
32760;SDS011;19126;47.472;7.850;2022-07-23T14:08:06;12.35;;;8.57;;
32760;SDS011;19126;47.472;7.850;2022-07-23T14:10:33;9.05;;;8.00;;
32760;SDS011;19126;47.472;7.850;2022-07-23T14:13:00;16.58;;;8.30;;
32760;SDS011;19126;47.472;7.850;2022-07-23T14:15:29;12.77;;;7.75;;
32760;SDS011;19126;47.472;7.850;2022-07-23T14:17:58;8.63;;;7.43;;
32760;SDS011;19126;47.472;7.850;2022-07-23T14:20:28;10.93;;;7.85;;
32760;SDS011;19126;47.472;7.850;2022-07-23T14:22:55;12.88;;;7.32;;
32760;SDS011;19126;47.472;7.850;2022-07-23T14:25:26;8.25;;;7.35;;
32760;SDS011;19126;47.472;7.850;2022-07-23T14:27:54;12.73;;;8.25;;
32760;SDS011;19126;47.472;7.850;2022-07-23T14:30:21;11.30;;;7.50;;
32760;SDS011;19126;47.472;7.850;2022-07-23T14:32:49;16.77;;;7.80;;
32760;SDS011;19126;47.472;7.850;2022-07-23T14:35:16;10.32;;;6.50;;
32760;SDS011;19126;47.472;7.850;2022-07-23T14:37:44;19.70;;;7.22;;
32760;SDS011;19126;47.472;7.850;2022-07-23T14:40:11;9.57;;;7.13;;
32760;SDS011;19126;47.472;7.850;2022-07-23T14:42:40;9.95;;;7.20;;
32760;SDS011;19126;47.472;7.850;2022-07-23T14:45:07;12.00;;;6.75;;
32760;SDS011;19126;47.472;7.850;2022-07-23T14:47:35;12.77;;;6.85;;
32760;SDS011;19126;47.472;7.850;2022-07-23T14:50:02;11.30;;;7.05;;
32760;SDS011;19126;47.472;7.850;2022-07-23T14:52:31;13.10;;;6.68;;
32760;SDS011;19126;47.472;7.850;2022-07-23T14:54:58;12.27;;;6.38;;
32760;SDS011;19126;47.472;7.850;2022-07-23T14:57:25;9.38;;;6.35;;
32760;SDS011;19126;47.472;7.850;2022-07-23T14:59:54;10.52;;;6.57;;
32760;SDS011;19126;47.472;7.850;2022-07-23T15:02:21;15.20;;;7.25;;